createdAt,value
2018-01-28T00:04:26.303Z,75.37
2018-01-28T00:10:31.449Z,71.90
2018-01-28T00:16:36.698Z,72.90
2018-01-28T00:22:42.087Z,87.77
2018-01-28T00:28:47.210Z,89.93
2018-01-28T00:34:52.702Z,78.57
2018-01-28T00:40:57.944Z,82.00
2018-01-28T00:47:03.152Z,76.03
2018-01-28T00:53:08.307Z,65.10
2018-01-28T00:59:13.640Z,63.10
2018-01-28T01:05:18.886Z,51.77
2018-01-28T01:11:24.370Z,52.93
2018-01-28T01:17:29.677Z,78.80
2018-01-28T01:23:35.062Z,68.83
2018-01-28T01:29:40.377Z,59.27
2018-01-28T01:35:45.517Z,65.77
2018-01-28T01:41:50.828Z,65.50
2018-01-28T01:47:56.118Z,63.60
2018-01-28T01:54:01.556Z,61.30
2018-01-28T02:00:07.096Z,57.53
2018-01-28T02:06:12.651Z,56.53
2018-01-28T02:12:17.852Z,60.83
2018-01-28T02:18:23.030Z,65.77
2018-01-28T02:24:28.221Z,66.60
2018-01-28T02:30:33.420Z,89.73
2018-01-28T02:36:38.668Z,85.47
2018-01-28T02:42:43.971Z,104.83
2018-01-28T02:48:49.300Z,106.47
2018-01-28T02:54:54.779Z,73.20
2018-01-28T03:00:59.958Z,67.37
2018-01-28T03:07:05.146Z,64.60
2018-01-28T03:13:10.556Z,68.77
2018-01-28T03:19:15.675Z,72.47
2018-01-28T03:25:21.020Z,82.13
2018-01-28T03:31:26.286Z,90.10
2018-01-28T03:37:31.546Z,87.73
2018-01-28T03:43:36.651Z,76.67
2018-01-28T03:49:42.243Z,62.77
2018-01-28T03:55:47.660Z,65.30
2018-01-28T04:01:53.196Z,70.57
2018-01-28T04:07:58.864Z,62.60
2018-01-28T04:14:04.035Z,119.77
2018-01-28T04:20:09.582Z,119.53
2018-01-28T04:26:14.836Z,112.90
2018-01-28T04:32:20.258Z,118.10
2018-01-28T04:38:25.948Z,103.30
2018-01-28T04:44:31.498Z,99.77
2018-01-28T04:50:37.040Z,100.83
2018-01-28T04:56:42.521Z,78.43
2018-01-28T05:02:47.831Z,99.40
2018-01-28T05:08:53.466Z,77.37
2018-01-28T05:14:58.919Z,113.23
2018-01-28T05:21:04.440Z,137.20
2018-01-28T05:27:10.108Z,153.33
2018-01-28T05:33:15.410Z,150.43
2018-01-28T05:39:20.694Z,151.73
2018-01-28T05:45:25.951Z,126.47
2018-01-28T05:51:31.635Z,110.87
2018-01-28T05:57:37.117Z,101.37
2018-01-28T06:03:42.423Z,92.00
2018-01-28T06:09:47.726Z,99.47
2018-01-28T06:15:53.607Z,97.07
2018-01-28T06:21:59.310Z,108.53
2018-01-28T06:28:04.454Z,77.60
2018-01-28T06:34:09.888Z,74.93
2018-01-28T06:40:15.395Z,78.13
2018-01-28T06:46:20.506Z,79.87
2018-01-28T06:52:25.665Z,96.77
2018-01-28T06:58:31.222Z,100.47
2018-01-28T07:04:36.786Z,104.53
2018-01-28T07:10:42.069Z,111.40
2018-01-28T07:16:47.268Z,105.70
2018-01-28T07:22:52.706Z,151.82
2018-01-28T07:28:58.073Z,94.00
2018-01-28T07:35:03.913Z,101.70
2018-01-28T07:41:09.098Z,86.90
2018-01-28T07:47:14.461Z,70.87
2018-01-28T07:53:19.661Z,72.80
2018-01-28T07:59:24.880Z,87.33
2018-01-28T08:05:30.019Z,98.97
2018-01-28T08:11:36.157Z,73.77
2018-01-28T08:17:41.570Z,67.47
2018-01-28T08:23:46.990Z,78.63
2018-01-28T08:29:52.412Z,69.93
2018-01-28T08:35:57.775Z,58.77
2018-01-28T08:42:02.851Z,61.80
2018-01-28T08:48:08.217Z,59.30
2018-01-28T08:54:13.509Z,61.03
2018-01-28T09:00:18.646Z,67.57
2018-01-28T09:06:23.902Z,60.03
2018-01-28T09:12:29.362Z,55.57
2018-01-28T09:18:34.768Z,62.00
2018-01-28T09:24:39.922Z,64.30
2018-01-28T09:30:45.349Z,65.73
2018-01-28T09:36:50.708Z,62.60
2018-01-28T09:42:56.210Z,83.93
2018-01-28T17:55:34.401Z,204.37
2018-01-28T18:01:39.614Z,128.87
2018-01-28T18:07:45.283Z,102.63
2018-01-28T18:13:50.432Z,84.80
2018-01-28T18:19:55.781Z,103.63
2018-01-28T18:26:01.022Z,165.83
2018-01-28T18:32:06.058Z,221.33
2018-01-28T18:38:13.366Z,251.53
2018-01-28T18:44:19.000Z,178.63
2018-01-28T18:50:24.377Z,139.60
2018-01-28T18:56:29.683Z,194.97
2018-01-28T19:02:34.862Z,212.90
2018-01-28T19:08:40.135Z,101.77
2018-01-28T19:14:45.958Z,112.23
2018-01-28T19:20:51.265Z,108.57
2018-01-28T19:26:56.549Z,112.57
2018-01-28T19:33:01.793Z,116.83
2018-01-28T19:39:07.104Z,119.17
2018-01-28T19:45:12.327Z,108.30
2018-01-28T19:51:18.762Z,88.30
2018-01-28T19:57:24.400Z,103.80
2018-01-28T20:03:29.642Z,108.50
2018-01-28T20:09:34.871Z,103.27
2018-01-28T20:15:40.078Z,100.73
2018-01-28T20:21:45.212Z,103.53
2018-01-28T20:27:50.463Z,194.73
2018-01-28T20:33:57.717Z,228.60
2018-01-28T20:40:03.922Z,269.97
2018-01-28T20:46:09.162Z,137.23
2018-01-28T20:52:15.309Z,128.50
2018-01-28T20:58:20.399Z,148.23
2018-01-28T21:04:25.505Z,139.07
2018-01-28T21:10:30.773Z,132.83
2018-01-28T21:16:36.236Z,126.60
2018-01-28T21:22:41.308Z,131.77
2018-01-28T21:28:46.498Z,142.20
2018-01-28T21:34:51.867Z,137.20
2018-01-28T21:40:56.984Z,128.23
2018-01-28T21:47:02.069Z,122.37
2018-01-28T21:53:07.268Z,131.43
2018-01-28T21:59:12.389Z,144.13
2018-01-28T22:05:17.502Z,184.13
2018-01-28T22:11:22.680Z,181.90
2018-01-28T22:17:28.112Z,187.53
2018-01-28T22:23:33.418Z,173.63
2018-01-28T22:29:38.748Z,167.53
2018-01-28T22:35:43.750Z,154.03
2018-01-28T22:41:48.851Z,140.87
2018-01-28T22:47:53.918Z,125.73
2018-01-28T22:53:59.084Z,162.77
2018-01-28T23:00:04.345Z,129.90
2018-01-28T23:06:09.451Z,143.53
2018-01-28T23:12:14.963Z,167.73
2018-01-28T23:18:20.021Z,133.43
2018-01-28T23:24:25.282Z,135.60
2018-01-28T23:30:30.359Z,130.87
2018-01-28T23:36:35.412Z,146.97
2018-01-28T23:42:40.429Z,135.77
2018-01-28T23:48:45.714Z,142.47
2018-01-28T23:54:50.979Z,140.47
